sensor_id;sensor_type;location;lat;lon;timestamp;pressure;altitude;pressure_sealevel;temperature;humidity
9969;BME280;5025;48.890;9.278;2022-08-21T00:00:45;98836.84;;;18.55;65.03
9969;BME280;5025;48.890;9.278;2022-08-21T00:03:12;98843.13;;;18.56;65.23
9969;BME280;5025;48.890;9.278;2022-08-21T00:05:41;98843.69;;;18.53;65.34
9969;BME280;5025;48.890;9.278;2022-08-21T00:08:07;98847.53;;;18.52;65.61
9969;BME280;5025;48.890;9.278;2022-08-21T00:10:33;98840.69;;;18.49;65.74
9969;BME280;5025;48.890;9.278;2022-08-21T00:13:00;98843.19;;;18.45;65.76
9969;BME280;5025;48.890;9.278;2022-08-21T00:15:28;98842.66;;;18.43;66.16
9969;BME280;5025;48.890;9.278;2022-08-21T00:17:54;98839.34;;;18.41;66.18
9969;BME280;5025;48.890;9.278;2022-08-21T00:20:21;98837.75;;;18.40;66.37
9969;BME280;5025;48.890;9.278;2022-08-21T00:22:48;98839.38;;;18.36;66.37
9969;BME280;5025;48.890;9.278;2022-08-21T00:25:15;98841.59;;;18.34;66.71
9969;BME280;5025;48.890;9.278;2022-08-21T00:27:41;98844.03;;;18.31;66.73
9969;BME280;5025;48.890;9.278;2022-08-21T00:30:09;98834.50;;;18.28;66.85
9969;BME280;5025;48.890;9.278;2022-08-21T00:32:36;98842.13;;;18.26;66.88
9969;BME280;5025;48.890;9.278;2022-08-21T00:35:04;98844.34;;;18.24;67.10
9969;BME280;5025;48.890;9.278;2022-08-21T00:37:29;98844.38;;;18.19;67.33
9969;BME280;5025;48.890;9.278;2022-08-21T00:39:55;98842.75;;;18.13;67.66
9969;BME280;5025;48.890;9.278;2022-08-21T00:42:20;98835.63;;;18.12;67.60
9969;BME280;5025;48.890;9.278;2022-08-21T00:44:47;98840.28;;;18.11;67.72
9969;BME280;5025;48.890;9.278;2022-08-21T00:47:13;98833.97;;;18.10;67.84
9969;BME280;5025;48.890;9.278;2022-08-21T00:49:39;98835.91;;;18.10;68.24
9969;BME280;5025;48.890;9.278;2022-08-21T00:52:08;98833.72;;;18.07;68.09
9969;BME280;5025;48.890;9.278;2022-08-21T00:54:34;98829.63;;;18.04;68.06
9969;BME280;5025;48.890;9.278;2022-08-21T00:57:05;98828.00;;;18.03;68.21
9969;BME280;5025;48.890;9.278;2022-08-21T00:59:35;98819.78;;;17.98;68.25
9969;BME280;5025;48.890;9.278;2022-08-21T01:02:05;98833.75;;;17.97;68.30
9969;BME280;5025;48.890;9.278;2022-08-21T01:04:30;98825.81;;;17.95;68.38
9969;BME280;5025;48.890;9.278;2022-08-21T01:06:56;98836.22;;;17.93;68.37
9969;BME280;5025;48.890;9.278;2022-08-21T01:09:21;98822.03;;;17.91;68.34
9969;BME280;5025;48.890;9.278;2022-08-21T01:11:47;98829.91;;;17.87;68.49
9969;BME280;5025;48.890;9.278;2022-08-21T01:14:14;98822.81;;;17.86;68.52
9969;BME280;5025;48.890;9.278;2022-08-21T01:16:44;98823.38;;;17.83;68.44
9969;BME280;5025;48.890;9.278;2022-08-21T01:19:10;98829.38;;;17.80;68.66
9969;BME280;5025;48.890;9.278;2022-08-21T01:21:36;98833.75;;;17.76;68.63
9969;BME280;5025;48.890;9.278;2022-08-21T01:24:02;98820.91;;;17.71;68.55
9969;BME280;5025;48.890;9.278;2022-08-21T01:26:31;98824.47;;;17.67;68.61
9969;BME280;5025;48.890;9.278;2022-08-21T01:29:02;98829.94;;;17.62;68.69
9969;BME280;5025;48.890;9.278;2022-08-21T01:31:30;98831.84;;;17.61;68.64
9969;BME280;5025;48.890;9.278;2022-08-21T01:33:58;98832.94;;;17.55;68.83
9969;BME280;5025;48.890;9.278;2022-08-21T01:36:24;98833.75;;;17.55;68.59
9969;BME280;5025;48.890;9.278;2022-08-21T01:38:50;98831.31;;;17.54;68.70
9969;BME280;5025;48.890;9.278;2022-08-21T01:41:15;98831.84;;;17.51;68.76
9969;BME280;5025;48.890;9.278;2022-08-21T01:43:42;98835.41;;;17.46;68.82
9969;BME280;5025;48.890;9.278;2022-08-21T01:46:08;98829.66;;;17.43;68.86
9969;BME280;5025;48.890;9.278;2022-08-21T01:48:34;98831.31;;;17.38;68.88
9969;BME280;5025;48.890;9.278;2022-08-21T01:51:00;98820.94;;;17.35;68.83
9969;BME280;5025;48.890;9.278;2022-08-21T01:53:25;98825.56;;;17.35;68.81
9969;BME280;5025;48.890;9.278;2022-08-21T01:55:51;98823.38;;;17.32;68.78
9969;BME280;5025;48.890;9.278;2022-08-21T01:58:16;98825.03;;;17.28;68.81
9969;BME280;5025;48.890;9.278;2022-08-21T02:00:42;98818.19;;;17.25;68.85
9969;BME280;5025;48.890;9.278;2022-08-21T02:03:08;98822.00;;;17.24;69.04
9969;BME280;5025;48.890;9.278;2022-08-21T02:05:33;98812.19;;;17.23;68.73
9969;BME280;5025;48.890;9.278;2022-08-21T02:07:59;98810.00;;;17.20;68.88
9969;BME280;5025;48.890;9.278;2022-08-21T02:10:28;98807.81;;;17.17;68.77
9969;BME280;5025;48.890;9.278;2022-08-21T02:12:55;98810.25;;;17.13;68.79
9969;BME280;5025;48.890;9.278;2022-08-21T02:15:20;98807.53;;;17.08;68.70
9969;BME280;5025;48.890;9.278;2022-08-21T02:17:50;98810.00;;;17.05;68.94
9969;BME280;5025;48.890;9.278;2022-08-21T02:20:20;98810.25;;;17.03;68.92
9969;BME280;5025;48.890;9.278;2022-08-21T02:22:46;98805.59;;;17.03;68.95
9969;BME280;5025;48.890;9.278;2022-08-21T02:25:12;98806.16;;;17.00;68.99
9969;BME280;5025;48.890;9.278;2022-08-21T02:27:43;98805.88;;;16.97;69.15
9969;BME280;5025;48.890;9.278;2022-08-21T02:30:15;98798.25;;;16.94;69.13
9969;BME280;5025;48.890;9.278;2022-08-21T02:32:41;98806.41;;;16.94;69.20
9969;BME280;5025;48.890;9.278;2022-08-21T02:35:08;98805.31;;;16.90;69.27
9969;BME280;5025;48.890;9.278;2022-08-21T02:37:42;98804.50;;;16.89;69.21
9969;BME280;5025;48.890;9.278;2022-08-21T02:40:08;98807.50;;;16.88;69.53
9969;BME280;5025;48.890;9.278;2022-08-21T02:42:36;98805.28;;;16.84;69.48
9969;BME280;5025;48.890;9.278;2022-08-21T02:45:01;98799.59;;;16.86;69.40
9969;BME280;5025;48.890;9.278;2022-08-21T02:47:26;98801.75;;;16.84;69.44
9969;BME280;5025;48.890;9.278;2022-08-21T02:49:52;98803.91;;;16.82;69.50
9969;BME280;5025;48.890;9.278;2022-08-21T02:52:17;98807.16;;;16.79;69.62
9969;BME280;5025;48.890;9.278;2022-08-21T02:54:42;98804.97;;;16.76;69.66
9969;BME280;5025;48.890;9.278;2022-08-21T02:57:08;98804.97;;;16.76;69.75
9969;BME280;5025;48.890;9.278;2022-08-21T02:59:33;98807.44;;;16.72;69.67
9969;BME280;5025;48.890;9.278;2022-08-21T03:01:58;98811.81;;;16.73;69.83
9969;BME280;5025;48.890;9.278;2022-08-21T03:04:24;98806.88;;;16.70;69.79
9969;BME280;5025;48.890;9.278;2022-08-21T03:06:49;98806.59;;;16.66;69.84
9969;BME280;5025;48.890;9.278;2022-08-21T03:09:14;98804.97;;;16.65;69.84
9969;BME280;5025;48.890;9.278;2022-08-21T03:11:39;98808.78;;;16.64;69.71
9969;BME280;5025;48.890;9.278;2022-08-21T03:14:05;98809.84;;;16.63;69.98
9969;BME280;5025;48.890;9.278;2022-08-21T03:16:30;98802.19;;;16.60;69.90
9969;BME280;5025;48.890;9.278;2022-08-21T03:18:57;98798.13;;;16.58;70.36
9969;BME280;5025;48.890;9.278;2022-08-21T03:21:23;98805.72;;;16.56;69.98
9969;BME280;5025;48.890;9.278;2022-08-21T03:23:48;98797.28;;;16.52;70.14
9969;BME280;5025;48.890;9.278;2022-08-21T03:26:14;98804.06;;;16.49;70.16
9969;BME280;5025;48.890;9.278;2022-08-21T03:28:39;98807.63;;;16.50;70.02
9969;BME280;5025;48.890;9.278;2022-08-21T03:31:04;98808.19;;;16.47;69.95
9969;BME280;5025;48.890;9.278;2022-08-21T03:33:30;98815.78;;;16.45;70.06
9969;BME280;5025;48.890;9.278;2022-08-21T03:36:03;98809.25;;;16.41;70.10
9969;BME280;5025;48.890;9.278;2022-08-21T03:38:30;98812.78;;;16.41;69.98
9969;BME280;5025;48.890;9.278;2022-08-21T03:40:56;98816.03;;;16.38;70.06
9969;BME280;5025;48.890;9.278;2022-08-21T03:43:22;98813.84;;;16.35;70.08
9969;BME280;5025;48.890;9.278;2022-08-21T03:45:47;98816.03;;;16.33;70.01
9969;BME280;5025;48.890;9.278;2022-08-21T03:48:13;98811.09;;;16.30;70.13
9969;BME280;5025;48.890;9.278;2022-08-21T03:50:41;98823.31;;;16.22;70.28
9969;BME280;5025;48.890;9.278;2022-08-21T03:53:11;98820.53;;;16.12;70.48
9969;BME280;5025;48.890;9.278;2022-08-21T03:55:37;98817.81;;;16.12;70.46
9969;BME280;5025;48.890;9.278;2022-08-21T03:58:03;98823.53;;;16.16;70.41
9969;BME280;5025;48.890;9.278;2022-08-21T04:00:29;98825.47;;;16.15;70.75
9969;BME280;5025;48.890;9.278;2022-08-21T04:02:55;98828.44;;;16.13;70.44
9969;BME280;5025;48.890;9.278;2022-08-21T04:05:21;98828.72;;;16.12;70.46
9969;BME280;5025;48.890;9.278;2022-08-21T04:08:00;98825.44;;;16.10;70.53
9969;BME280;5025;48.890;9.278;2022-08-21T04:10:27;98829.50;;;16.07;70.61
9969;BME280;5025;48.890;9.278;2022-08-21T04:12:54;98827.84;;;16.01;70.62
9969;BME280;5025;48.890;9.278;2022-08-21T04:15:21;98825.09;;;15.96;70.95
9969;BME280;5025;48.890;9.278;2022-08-21T04:17:47;98834.63;;;15.99;71.13
9969;BME280;5025;48.890;9.278;2022-08-21T04:20:14;98834.63;;;15.99;70.92
9969;BME280;5025;48.890;9.278;2022-08-21T04:22:39;98835.47;;;15.99;71.01
9969;BME280;5025;48.890;9.278;2022-08-21T04:25:05;98833.81;;;15.98;71.10
9969;BME280;5025;48.890;9.278;2022-08-21T04:27:32;98834.88;;;15.97;71.13
9969;BME280;5025;48.890;9.278;2022-08-21T04:29:57;98840.59;;;15.95;71.01
9969;BME280;5025;48.890;9.278;2022-08-21T04:32:24;98852.59;;;15.94;71.37
9969;BME280;5025;48.890;9.278;2022-08-21T04:34:50;98851.75;;;15.94;71.41
9969;BME280;5025;48.890;9.278;2022-08-21T04:37:15;98859.09;;;15.93;71.41
9969;BME280;5025;48.890;9.278;2022-08-21T04:39:41;98864.56;;;15.93;71.38
9969;BME280;5025;48.890;9.278;2022-08-21T04:42:07;98868.09;;;15.94;71.44
9969;BME280;5025;48.890;9.278;2022-08-21T04:44:32;98861.56;;;15.95;71.59
9969;BME280;5025;48.890;9.278;2022-08-21T04:46:58;98865.38;;;15.94;71.38
9969;BME280;5025;48.890;9.278;2022-08-21T04:49:23;98870.00;;;15.93;71.51
9969;BME280;5025;48.890;9.278;2022-08-21T04:51:49;98866.47;;;15.93;71.34
9969;BME280;5025;48.890;9.278;2022-08-21T04:54:19;98864.53;;;15.88;71.45
9969;BME280;5025;48.890;9.278;2022-08-21T04:56:49;98860.16;;;15.87;71.61
9969;BME280;5025;48.890;9.278;2022-08-21T04:59:29;98869.13;;;15.88;71.67
9969;BME280;5025;48.890;9.278;2022-08-21T05:01:55;98866.41;;;15.88;71.84
9969;BME280;5025;48.890;9.278;2022-08-21T05:04:25;98873.25;;;15.90;71.41
9969;BME280;5025;48.890;9.278;2022-08-21T05:06:52;98877.63;;;15.91;71.65
9969;BME280;5025;48.890;9.278;2022-08-21T05:09:20;98872.97;;;15.92;71.60
9969;BME280;5025;48.890;9.278;2022-08-21T05:11:46;98879.75;;;15.89;71.69
9969;BME280;5025;48.890;9.278;2022-08-21T05:14:12;98876.78;;;15.91;71.78
9969;BME280;5025;48.890;9.278;2022-08-21T05:16:38;98877.63;;;15.91;71.88
9969;BME280;5025;48.890;9.278;2022-08-21T05:19:06;98873.25;;;15.90;71.85
9969;BME280;5025;48.890;9.278;2022-08-21T05:21:34;98875.97;;;15.90;71.81
9969;BME280;5025;48.890;9.278;2022-08-21T05:23:59;98891.50;;;15.90;71.97
9969;BME280;5025;48.890;9.278;2022-08-21T05:26:25;98882.50;;;15.89;71.99
9969;BME280;5025;48.890;9.278;2022-08-21T05:28:50;98889.59;;;15.90;71.88
9969;BME280;5025;48.890;9.278;2022-08-21T05:31:17;98887.94;;;15.89;71.88
9969;BME280;5025;48.890;9.278;2022-08-21T05:33:42;98896.69;;;15.91;71.92
9969;BME280;5025;48.890;9.278;2022-08-21T05:36:07;98890.66;;;15.89;71.93
9969;BME280;5025;48.890;9.278;2022-08-21T05:38:33;98896.94;;;15.90;72.18
9969;BME280;5025;48.890;9.278;2022-08-21T05:40:58;98896.69;;;15.91;72.07
9969;BME280;5025;48.890;9.278;2022-08-21T05:43:23;98893.69;;;15.93;72.21
9969;BME280;5025;48.890;9.278;2022-08-21T05:45:49;98891.78;;;15.93;72.11
9969;BME280;5025;48.890;9.278;2022-08-21T05:48:21;98893.19;;;15.96;72.15
9969;BME280;5025;48.890;9.278;2022-08-21T05:50:48;98897.25;;;15.99;72.22
9969;BME280;5025;48.890;9.278;2022-08-21T05:53:16;98896.44;;;15.98;72.45
9969;BME280;5025;48.890;9.278;2022-08-21T05:55:42;98898.09;;;15.99;72.37
9969;BME280;5025;48.890;9.278;2022-08-21T05:58:08;98901.38;;;16.01;72.54
9969;BME280;5025;48.890;9.278;2022-08-21T06:00:33;98897.31;;;16.04;72.30
9969;BME280;5025;48.890;9.278;2022-08-21T06:02:59;98889.16;;;16.04;72.60
9969;BME280;5025;48.890;9.278;2022-08-21T06:05:25;98895.97;;;16.06;72.51
9969;BME280;5025;48.890;9.278;2022-08-21T06:07:50;98889.69;;;16.06;72.66
9969;BME280;5025;48.890;9.278;2022-08-21T06:10:16;98896.78;;;16.07;72.56
9969;BME280;5025;48.890;9.278;2022-08-21T06:12:41;98895.97;;;16.06;72.79
9969;BME280;5025;48.890;9.278;2022-08-21T06:15:07;98892.16;;;16.07;72.85
9969;BME280;5025;48.890;9.278;2022-08-21T06:17:32;98901.47;;;16.11;72.78
9969;BME280;5025;48.890;9.278;2022-08-21T06:19:57;98899.53;;;16.12;72.88
9969;BME280;5025;48.890;9.278;2022-08-21T06:22:23;98904.19;;;16.11;72.89
9969;BME280;5025;48.890;9.278;2022-08-21T06:24:48;98899.03;;;16.15;73.12
9969;BME280;5025;48.890;9.278;2022-08-21T06:27:13;98903.94;;;16.18;73.12
9969;BME280;5025;48.890;9.278;2022-08-21T06:29:40;98900.16;;;16.24;72.98
9969;BME280;5025;48.890;9.278;2022-08-21T06:32:06;98892.00;;;16.29;72.94
9969;BME280;5025;48.890;9.278;2022-08-21T06:34:39;98900.50;;;16.33;73.17
9969;BME280;5025;48.890;9.278;2022-08-21T06:37:05;98895.34;;;16.37;73.11
9969;BME280;5025;48.890;9.278;2022-08-21T06:39:31;98892.63;;;16.42;73.12
9969;BME280;5025;48.890;9.278;2022-08-21T06:41:56;98885.03;;;16.44;73.08
9969;BME280;5025;48.890;9.278;2022-08-21T06:44:22;98883.41;;;16.48;73.06
9969;BME280;5025;48.890;9.278;2022-08-21T06:46:47;98879.59;;;16.49;73.09
9969;BME280;5025;48.890;9.278;2022-08-21T06:49:13;98887.78;;;16.49;73.11
9969;BME280;5025;48.890;9.278;2022-08-21T06:51:39;98886.97;;;16.54;72.85
9969;BME280;5025;48.890;9.278;2022-08-21T06:54:04;98890.28;;;16.61;73.00
9969;BME280;5025;48.890;9.278;2022-08-21T06:56:30;98884.59;;;16.67;72.91
9969;BME280;5025;48.890;9.278;2022-08-21T06:58:55;98881.88;;;16.73;72.84
9969;BME280;5025;48.890;9.278;2022-08-21T07:01:23;98881.34;;;16.76;73.15
9969;BME280;5025;48.890;9.278;2022-08-21T07:03:49;98880.81;;;16.79;72.88
9969;BME280;5025;48.890;9.278;2022-08-21T07:06:15;98878.66;;;16.81;72.89
9969;BME280;5025;48.890;9.278;2022-08-21T07:08:40;98885.72;;;16.82;72.75
9969;BME280;5025;48.890;9.278;2022-08-21T07:11:19;98876.22;;;16.90;72.62
9969;BME280;5025;48.890;9.278;2022-08-21T07:13:45;98881.47;;;16.96;72.37
9969;BME280;5025;48.890;9.278;2022-08-21T07:16:11;98878.72;;;17.01;72.32
9969;BME280;5025;48.890;9.278;2022-08-21T07:18:36;98881.47;;;17.07;72.15
9969;BME280;5025;48.890;9.278;2022-08-21T07:21:04;98886.38;;;17.15;72.03
9969;BME280;5025;48.890;9.278;2022-08-21T07:23:34;98873.03;;;17.18;71.97
9969;BME280;5025;48.890;9.278;2022-08-21T07:26:02;98876.56;;;17.24;71.74
9969;BME280;5025;48.890;9.278;2022-08-21T07:28:28;98878.22;;;17.30;71.57
9969;BME280;5025;48.890;9.278;2022-08-21T07:30:56;98876.88;;;17.38;71.37
9969;BME280;5025;48.890;9.278;2022-08-21T07:33:22;98873.31;;;17.43;71.07
9969;BME280;5025;48.890;9.278;2022-08-21T07:35:48;98876.91;;;17.48;70.93
9969;BME280;5025;48.890;9.278;2022-08-21T07:38:13;98870.63;;;17.53;70.68
9969;BME280;5025;48.890;9.278;2022-08-21T07:40:39;98873.34;;;17.53;70.44
9969;BME280;5025;48.890;9.278;2022-08-21T07:43:04;98872.81;;;17.56;70.19
9969;BME280;5025;48.890;9.278;2022-08-21T07:45:30;98865.16;;;17.63;69.89
9969;BME280;5025;48.890;9.278;2022-08-21T07:47:55;98867.88;;;17.68;69.82
9969;BME280;5025;48.890;9.278;2022-08-21T07:50:20;98863.25;;;17.74;69.31
9969;BME280;5025;48.890;9.278;2022-08-21T07:52:46;98869.53;;;17.74;69.16
9969;BME280;5025;48.890;9.278;2022-08-21T07:55:15;98868.16;;;17.82;68.95
9969;BME280;5025;48.890;9.278;2022-08-21T07:57:40;98860.78;;;17.88;68.83
9969;BME280;5025;48.890;9.278;2022-08-21T08:00:09;98861.88;;;17.92;68.52
9969;BME280;5025;48.890;9.278;2022-08-21T08:02:35;98859.69;;;17.99;68.41
9969;BME280;5025;48.890;9.278;2022-08-21T08:05:05;98854.78;;;18.06;68.12
9969;BME280;5025;48.890;9.278;2022-08-21T08:07:31;98860.75;;;18.14;67.92
9969;BME280;5025;48.890;9.278;2022-08-21T08:09:57;98854.75;;;18.17;67.71
9969;BME280;5025;48.890;9.278;2022-08-21T08:12:23;98849.00;;;18.23;67.31
9969;BME280;5025;48.890;9.278;2022-08-21T08:14:54;98854.16;;;18.30;67.19
9969;BME280;5025;48.890;9.278;2022-08-21T08:17:19;98853.06;;;18.36;66.91
9969;BME280;5025;48.890;9.278;2022-08-21T08:19:48;98854.13;;;18.45;66.78
9969;BME280;5025;48.890;9.278;2022-08-21T08:22:16;98853.53;;;18.54;66.52
9969;BME280;5025;48.890;9.278;2022-08-21T08:24:45;98851.03;;;18.62;66.29
9969;BME280;5025;48.890;9.278;2022-08-21T08:27:10;98845.53;;;18.68;66.08
9969;BME280;5025;48.890;9.278;2022-08-21T08:29:35;98844.41;;;18.74;65.62
9969;BME280;5025;48.890;9.278;2022-08-21T08:32:02;98840.31;;;18.76;65.21
9969;BME280;5025;48.890;9.278;2022-08-21T08:34:27;98835.91;;;18.80;65.09
9969;BME280;5025;48.890;9.278;2022-08-21T08:36:53;98842.16;;;18.91;64.69
9969;BME280;5025;48.890;9.278;2022-08-21T08:39:18;98828.72;;;19.00;64.43
9969;BME280;5025;48.890;9.278;2022-08-21T08:41:46;98824.56;;;19.08;64.23
9969;BME280;5025;48.890;9.278;2022-08-21T08:44:13;98827.53;;;19.11;64.00
9969;BME280;5025;48.890;9.278;2022-08-21T08:46:44;98829.69;;;19.14;63.33
9969;BME280;5025;48.890;9.278;2022-08-21T08:49:22;98819.88;;;19.08;61.40
9969;BME280;5025;48.890;9.278;2022-08-21T08:52:17;98823.66;;;19.23;61.04
9969;BME280;5025;48.890;9.278;2022-08-21T08:54:52;98824.09;;;19.35;60.95
9969;BME280;5025;48.890;9.278;2022-08-21T08:57:22;98822.13;;;19.41;60.89
9969;BME280;5025;48.890;9.278;2022-08-21T08:59:52;98812.47;;;19.48;60.92
9969;BME280;5025;48.890;9.278;2022-08-21T09:02:18;98818.97;;;19.58;60.74
9969;BME280;5025;48.890;9.278;2022-08-21T09:04:45;98811.47;;;19.68;60.58
9969;BME280;5025;48.890;9.278;2022-08-21T09:12:56;98808.69;;;20.03;59.35
9969;BME280;5025;48.890;9.278;2022-08-21T09:18:36;98806.84;;;20.22;58.95
9969;BME280;5025;48.890;9.278;2022-08-21T09:21:23;98800.69;;;20.31;58.88
9969;BME280;5025;48.890;9.278;2022-08-21T09:24:08;98798.72;;;20.36;57.94
9969;BME280;5025;48.890;9.278;2022-08-21T09:27:18;98796.38;;;20.49;57.42
9969;BME280;5025;48.890;9.278;2022-08-21T09:29:48;98795.72;;;20.57;56.55
9969;BME280;5025;48.890;9.278;2022-08-21T09:32:24;98797.78;;;20.70;55.81
9969;BME280;5025;48.890;9.278;2022-08-21T09:35:04;98792.97;;;20.81;55.24
9969;BME280;5025;48.890;9.278;2022-08-21T09:37:32;98792.81;;;20.91;54.54
9969;BME280;5025;48.890;9.278;2022-08-21T09:40:00;98785.84;;;20.99;53.73
9969;BME280;5025;48.890;9.278;2022-08-21T09:42:29;98783.38;;;21.17;53.77
9969;BME280;5025;48.890;9.278;2022-08-21T09:47:31;98778.59;;;21.41;52.98
9969;BME280;5025;48.890;9.278;2022-08-21T09:50:16;98782.50;;;21.54;52.83
9969;BME280;5025;48.890;9.278;2022-08-21T09:52:44;98772.94;;;21.65;52.75
9969;BME280;5025;48.890;9.278;2022-08-21T09:55:17;98782.06;;;21.80;52.29
9969;BME280;5025;48.890;9.278;2022-08-21T09:58:03;98771.06;;;21.94;52.06
9969;BME280;5025;48.890;9.278;2022-08-21T10:00:31;98775.25;;;22.05;52.12
9969;BME280;5025;48.890;9.278;2022-08-21T10:03:15;98769.25;;;22.17;51.96
9969;BME280;5025;48.890;9.278;2022-08-21T10:05:54;98771.72;;;22.32;51.53
9969;BME280;5025;48.890;9.278;2022-08-21T10:08:21;98773.13;;;22.44;51.64
9969;BME280;5025;48.890;9.278;2022-08-21T10:10:53;98769.75;;;22.47;51.69
9969;BME280;5025;48.890;9.278;2022-08-21T10:24:34;98757.50;;;22.89;48.28
9969;BME280;5025;48.890;9.278;2022-08-21T10:30:12;98749.03;;;23.00;47.18
9969;BME280;5025;48.890;9.278;2022-08-21T10:35:27;98744.91;;;23.11;46.67
9969;BME280;5025;48.890;9.278;2022-08-21T10:40:45;98747.84;;;23.37;45.86
9969;BME280;5025;48.890;9.278;2022-08-21T10:46:08;98739.41;;;23.65;45.73
9969;BME280;5025;48.890;9.278;2022-08-21T10:48:47;98732.84;;;23.84;45.15
9969;BME280;5025;48.890;9.278;2022-08-21T10:51:40;98724.81;;;23.96;45.10
9969;BME280;5025;48.890;9.278;2022-08-21T10:54:33;98731.66;;;24.07;44.75
9969;BME280;5025;48.890;9.278;2022-08-21T10:57:08;98731.22;;;24.23;44.22
9969;BME280;5025;48.890;9.278;2022-08-21T11:00:00;98724.94;;;24.31;44.00
9969;BME280;5025;48.890;9.278;2022-08-21T11:02:40;98719.09;;;24.41;43.54
9969;BME280;5025;48.890;9.278;2022-08-21T11:07:51;98726.88;;;24.39;40.84
9969;BME280;5025;48.890;9.278;2022-08-21T11:12:52;98717.28;;;24.28;38.47
9969;BME280;5025;48.890;9.278;2022-08-21T11:15:31;98725.38;;;24.24;38.89
9969;BME280;5025;48.890;9.278;2022-08-21T11:18:22;98717.94;;;24.25;39.24
9969;BME280;5025;48.890;9.278;2022-08-21T11:21:34;98707.09;;;24.37;39.40
9969;BME280;5025;48.890;9.278;2022-08-21T11:23:49;98706.63;;;24.61;39.44
9969;BME280;5025;48.890;9.278;2022-08-21T11:26:30;98713.78;;;24.80;39.46
9969;BME280;5025;48.890;9.278;2022-08-21T11:29:06;98702.75;;;24.97;39.76
9969;BME280;5025;48.890;9.278;2022-08-21T11:31:47;98702.53;;;25.11;39.50
9969;BME280;5025;48.890;9.278;2022-08-21T11:37:57;98704.63;;;25.40;38.34
9969;BME280;5025;48.890;9.278;2022-08-21T11:40:54;98701.72;;;25.19;36.35
9969;BME280;5025;48.890;9.278;2022-08-21T11:51:07;98689.53;;;25.20;36.01
9969;BME280;5025;48.890;9.278;2022-08-21T11:53:48;98684.50;;;25.14;35.48
9969;BME280;5025;48.890;9.278;2022-08-21T11:56:27;98689.84;;;25.28;34.93
9969;BME280;5025;48.890;9.278;2022-08-21T11:58:59;98684.50;;;25.22;34.40
9969;BME280;5025;48.890;9.278;2022-08-21T12:01:31;98686.44;;;25.31;34.47
9969;BME280;5025;48.890;9.278;2022-08-21T12:04:06;98691.91;;;25.48;35.00
9969;BME280;5025;48.890;9.278;2022-08-21T12:06:39;98685.69;;;25.69;35.18
9969;BME280;5025;48.890;9.278;2022-08-21T12:09:11;98685.25;;;25.88;35.29
9969;BME280;5025;48.890;9.278;2022-08-21T12:12:12;98680.66;;;26.01;35.04
9969;BME280;5025;48.890;9.278;2022-08-21T12:14:45;98680.63;;;26.09;35.07
9969;BME280;5025;48.890;9.278;2022-08-21T12:17:24;98679.41;;;26.19;34.37
9969;BME280;5025;48.890;9.278;2022-08-21T12:20:16;98689.13;;;26.25;34.63
9969;BME280;5025;48.890;9.278;2022-08-21T12:22:49;98682.38;;;26.35;34.39
9969;BME280;5025;48.890;9.278;2022-08-21T12:25:19;98682.13;;;26.49;34.50
9969;BME280;5025;48.890;9.278;2022-08-21T12:27:51;98671.28;;;26.65;34.09
9969;BME280;5025;48.890;9.278;2022-08-21T12:32:55;98659.16;;;26.91;33.55
9969;BME280;5025;48.890;9.278;2022-08-21T12:35:24;98666.03;;;27.06;32.73
9969;BME280;5025;48.890;9.278;2022-08-21T12:38:12;98657.03;;;27.09;32.41
9969;BME280;5025;48.890;9.278;2022-08-21T12:40:46;98655.16;;;27.00;30.95
9969;BME280;5025;48.890;9.278;2022-08-21T12:43:20;98651.03;;;27.07;31.29
9969;BME280;5025;48.890;9.278;2022-08-21T12:45:49;98641.56;;;27.20;31.23
9969;BME280;5025;48.890;9.278;2022-08-21T12:51:10;98640.34;;;27.30;26.71
9969;BME280;5025;48.890;9.278;2022-08-21T12:53:48;98639.59;;;27.08;27.15
9969;BME280;5025;48.890;9.278;2022-08-21T12:56:23;98631.72;;;26.98;27.02
9969;BME280;5025;48.890;9.278;2022-08-21T12:58:56;98634.50;;;27.10;27.65
9969;BME280;5025;48.890;9.278;2022-08-21T13:01:45;98635.47;;;27.14;27.94
9969;BME280;5025;48.890;9.278;2022-08-21T13:04:14;98639.16;;;27.18;28.34
9969;BME280;5025;48.890;9.278;2022-08-21T13:06:44;98642.13;;;27.34;28.08
9969;BME280;5025;48.890;9.278;2022-08-21T13:09:12;98640.06;;;27.56;28.59
9969;BME280;5025;48.890;9.278;2022-08-21T13:11:41;98640.28;;;27.76;28.35
9969;BME280;5025;48.890;9.278;2022-08-21T13:14:17;98627.69;;;27.90;28.00
9969;BME280;5025;48.890;9.278;2022-08-21T13:16:46;98626.06;;;28.02;27.71
9969;BME280;5025;48.890;9.278;2022-08-21T13:19:17;98628.38;;;28.12;27.72
9969;BME280;5025;48.890;9.278;2022-08-21T13:21:44;98627.31;;;28.17;27.40
9969;BME280;5025;48.890;9.278;2022-08-21T13:24:31;98622.66;;;28.21;27.31
9969;BME280;5025;48.890;9.278;2022-08-21T13:26:57;98624.38;;;28.38;27.08
9969;BME280;5025;48.890;9.278;2022-08-21T13:29:28;98619.59;;;28.51;26.91
9969;BME280;5025;48.890;9.278;2022-08-21T13:32:03;98620.25;;;28.72;26.92
9969;BME280;5025;48.890;9.278;2022-08-21T13:34:33;98616.50;;;28.96;26.90
9969;BME280;5025;48.890;9.278;2022-08-21T13:37:03;98616.59;;;29.00;25.65
9969;BME280;5025;48.890;9.278;2022-08-21T13:39:29;98617.53;;;28.76;25.27
9969;BME280;5025;48.890;9.278;2022-08-21T13:41:58;98609.94;;;28.89;25.65
9969;BME280;5025;48.890;9.278;2022-08-21T13:44:33;98609.88;;;29.17;25.75
9969;BME280;5025;48.890;9.278;2022-08-21T13:47:02;98614.53;;;29.41;24.68
9969;BME280;5025;48.890;9.278;2022-08-21T13:49:36;98609.59;;;29.50;24.36
9969;BME280;5025;48.890;9.278;2022-08-21T13:52:03;98614.88;;;29.88;24.67
9969;BME280;5025;48.890;9.278;2022-08-21T13:54:35;98603.00;;;30.26;24.41
9969;BME280;5025;48.890;9.278;2022-08-21T13:57:02;98604.38;;;30.36;23.37
9969;BME280;5025;48.890;9.278;2022-08-21T13:59:30;98598.13;;;30.39;23.25
9969;BME280;5025;48.890;9.278;2022-08-21T14:02:20;98602.53;;;30.40;23.32
9969;BME280;5025;48.890;9.278;2022-08-21T14:04:54;98603.22;;;30.56;23.67
9969;BME280;5025;48.890;9.278;2022-08-21T14:07:33;98597.88;;;30.87;23.81
9969;BME280;5025;48.890;9.278;2022-08-21T14:12:43;98596.56;;;31.46;23.84
9969;BME280;5025;48.890;9.278;2022-08-21T14:15:13;98595.53;;;31.81;23.69
9969;BME280;5025;48.890;9.278;2022-08-21T14:17:40;98596.31;;;32.09;23.40
9969;BME280;5025;48.890;9.278;2022-08-21T14:20:10;98581.81;;;32.26;23.39
9969;BME280;5025;48.890;9.278;2022-08-21T14:22:56;98588.31;;;32.38;23.01
9969;BME280;5025;48.890;9.278;2022-08-21T14:30:36;98582.34;;;33.11;22.94
9969;BME280;5025;48.890;9.278;2022-08-21T14:33:03;98590.97;;;33.32;22.71
9969;BME280;5025;48.890;9.278;2022-08-21T14:35:29;98581.00;;;33.35;21.79
9969;BME280;5025;48.890;9.278;2022-08-21T14:37:55;98578.25;;;32.97;20.61